createdAt,value
2022-10-11T00:00:06.452Z,13.16
2022-10-11T00:01:07.230Z,13.19
2022-10-11T00:02:08.451Z,13.12
2022-10-11T00:03:08.086Z,13.21
2022-10-11T00:04:08.979Z,13.17
2022-10-11T00:05:09.308Z,13.17
2022-10-11T00:06:10.731Z,13.17
2022-10-11T00:07:10.744Z,13.05
2022-10-11T00:08:10.669Z,13.19
2022-10-11T00:09:11.279Z,13.19
2022-10-11T00:10:11.913Z,13.16
2022-10-11T00:11:12.562Z,13.12
2022-10-11T00:12:13.181Z,13.12
2022-10-11T00:13:14.099Z,13.11
2022-10-11T00:14:14.299Z,13.12
2022-10-11T00:15:15.191Z,13.11
2022-10-11T00:16:16.103Z,13.11
2022-10-11T00:17:16.988Z,13.17
2022-10-11T00:18:17.596Z,13.06
2022-10-11T00:19:18.492Z,13.09
2022-10-11T00:20:19.697Z,13.09
2022-10-11T00:21:20.314Z,13.06
2022-10-11T00:22:21.232Z,13.06
2022-10-11T00:23:20.849Z,13.11
2022-10-11T00:24:22.173Z,13.05
2022-10-11T00:25:23.377Z,13.03
2022-10-11T00:26:23.588Z,13.03
2022-10-11T00:27:24.583Z,13.02
2022-10-11T00:28:24.680Z,13.05
2022-10-11T00:29:25.078Z,13.02
2022-10-11T00:30:25.561Z,13.02
2022-10-11T00:31:25.473Z,12.95
2022-10-11T00:32:25.975Z,12.98
2022-10-11T00:33:26.181Z,12.91
2022-10-11T00:34:26.828Z,13.01
2022-10-11T00:35:27.394Z,12.94
2022-10-11T00:36:28.011Z,12.83
2022-10-11T00:37:29.002Z,12.98
2022-10-11T00:38:32.334Z,12.84
2022-10-11T00:39:30.158Z,12.91
2022-10-11T00:40:30.355Z,12.94
2022-10-11T00:41:30.014Z,12.91
2022-10-11T00:42:30.927Z,12.9
2022-10-11T00:43:31.564Z,12.93
2022-10-11T00:44:31.792Z,12.91
2022-10-11T00:45:32.718Z,12.9
2022-10-11T00:46:33.356Z,12.93
2022-10-11T00:47:34.679Z,12.88
2022-10-11T00:48:34.284Z,12.98
2022-10-11T00:49:35.604Z,12.93
2022-10-11T00:50:36.524Z,12.87
2022-10-11T00:51:38.288Z,12.93
2022-10-11T00:52:37.909Z,12.98
2022-10-11T00:53:38.513Z,12.93
2022-10-11T00:54:39.699Z,12.9
2022-10-11T00:55:40.613Z,12.98
2022-10-11T00:56:40.539Z,12.87
2022-10-11T00:57:41.555Z,12.94
2022-10-11T00:58:41.748Z,13.03
2022-10-11T00:59:42.956Z,12.94
2022-10-11T01:00:42.945Z,12.95
2022-10-11T01:01:44.174Z,12.98
2022-10-11T01:02:44.598Z,12.94
2022-10-11T01:03:44.803Z,12.91
2022-10-11T01:04:44.417Z,13.01
2022-10-11T01:05:45.007Z,13.11
2022-10-11T01:06:45.633Z,13.2
2022-10-11T01:07:46.050Z,13.21
2022-10-11T01:08:46.966Z,13.4
2022-10-11T01:09:47.017Z,13.6
2022-10-11T01:10:48.523Z,13.57
2022-10-11T01:11:49.451Z,13.61
2022-10-11T01:12:50.347Z,13.57
2022-10-11T01:13:50.262Z,13.61
2022-10-11T01:14:51.169Z,13.58
2022-10-11T01:15:51.661Z,13.67
2022-10-11T01:16:52.475Z,13.61
2022-10-11T01:17:53.799Z,13.58
2022-10-11T01:18:53.979Z,13.61
2022-10-11T01:19:54.290Z,13.52
2022-10-11T01:20:54.631Z,13.62
2022-10-11T01:21:56.286Z,13.61
2022-10-11T01:22:57.197Z,13.57
2022-10-11T01:23:57.125Z,13.58
2022-10-11T01:24:57.902Z,13.58
2022-10-11T01:25:58.101Z,13.61
2022-10-11T01:26:59.051Z,13.55
2022-10-11T01:27:59.785Z,13.58
2022-10-11T01:29:00.423Z,13.5
2022-10-11T01:30:00.624Z,13.55
2022-10-11T01:31:01.266Z,13.61
2022-10-11T01:32:01.882Z,13.54
2022-10-11T01:33:02.807Z,13.54
2022-10-11T01:34:03.284Z,13.58
2022-10-11T01:35:04.207Z,13.62
2022-10-11T01:36:04.772Z,13.61
2022-10-11T01:37:04.888Z,13.58
2022-10-11T01:38:05.910Z,13.6
2022-10-11T01:39:06.550Z,13.57
2022-10-11T01:40:07.762Z,13.55
2022-10-11T01:41:08.418Z,13.58
2022-10-11T01:42:09.367Z,13.54
2022-10-11T01:43:10.151Z,13.5
2022-10-11T01:44:10.502Z,13.46
2022-10-11T01:45:11.660Z,13.39
2022-10-11T01:46:12.534Z,13.46
2022-10-11T01:47:12.503Z,13.28
2022-10-11T01:48:13.849Z,13.43
2022-10-11T01:49:13.775Z,13.37
2022-10-11T01:50:14.669Z,13.3
2022-10-11T01:51:15.287Z,13.28
2022-10-11T01:52:15.500Z,13.37
2022-10-11T01:53:16.694Z,13.33
2022-10-11T01:54:16.603Z,13.33
2022-10-11T01:55:17.338Z,13.2
2022-10-11T01:56:18.542Z,13.23
2022-10-11T01:57:18.632Z,13.24
2022-10-11T01:58:19.363Z,13.21
2022-10-11T01:59:19.712Z,13.28
2022-10-11T02:00:20.907Z,13.21
2022-10-11T02:01:21.885Z,13.2
2022-10-11T02:02:22.051Z,13.2
2022-10-11T02:03:22.830Z,13.17
2022-10-11T02:04:23.736Z,13.17
2022-10-11T02:05:23.349Z,13.11
2022-10-11T02:06:23.992Z,13.13
2022-10-11T02:07:24.633Z,13.12
2022-10-11T02:08:25.235Z,13.16
2022-10-11T02:09:25.125Z,13.11
2022-10-11T02:10:25.738Z,13.17
2022-10-11T02:11:26.651Z,13.13
2022-10-11T02:12:26.854Z,13.21
2022-10-11T02:13:27.491Z,13.26
2022-10-11T02:14:27.410Z,13.19
2022-10-11T02:15:27.740Z,13.24
2022-10-11T02:16:28.680Z,13.28
2022-10-11T02:17:29.169Z,13.27
2022-10-11T02:18:29.898Z,13.23
2022-10-11T02:19:29.808Z,13.26
2022-10-11T02:20:30.455Z,13.36
2022-10-11T02:21:31.646Z,13.2
2022-10-11T02:22:32.274Z,13.26
2022-10-11T02:23:32.489Z,13.36
2022-10-11T02:24:33.385Z,13.31
2022-10-11T02:25:33.899Z,13.31
2022-10-11T02:26:33.845Z,13.27
2022-10-11T02:27:34.785Z,13.21
2022-10-11T02:28:35.518Z,13.31
2022-10-11T02:29:36.219Z,13.23
2022-10-11T02:30:36.420Z,13.27
2022-10-11T02:31:36.625Z,13.13
2022-10-11T02:32:37.243Z,13.21
2022-10-11T02:33:38.193Z,13.19
2022-10-11T02:34:38.405Z,13.21
2022-10-11T02:35:39.016Z,13.2
2022-10-11T02:36:39.921Z,13.12
2022-10-11T02:37:40.115Z,13.17
2022-10-11T02:38:40.373Z,13.19
2022-10-11T02:39:40.283Z,13.13
2022-10-11T02:40:41.195Z,13.2
2022-10-11T02:41:42.406Z,13.13
2022-10-11T02:42:42.053Z,13.13
2022-10-11T02:43:42.851Z,13.19
2022-10-11T02:44:43.759Z,13.13
2022-10-11T02:45:44.959Z,13.19
2022-10-11T02:46:45.149Z,13.17
2022-10-11T02:47:45.364Z,13.16
2022-10-11T02:48:46.113Z,13.24
2022-10-11T02:49:47.305Z,13.2
2022-10-11T02:50:47.769Z,13.12
2022-10-11T02:51:48.662Z,13.21
2022-10-11T02:52:49.578Z,13.21
2022-10-11T02:53:49.193Z,13.23
2022-10-11T02:54:50.227Z,13.2
2022-10-11T02:55:50.561Z,13.09
2022-10-11T02:56:51.846Z,13.23
2022-10-11T02:57:53.070Z,13.27
2022-10-11T02:58:53.629Z,13.33
2022-10-11T02:59:53.567Z,13.28
2022-10-11T03:00:53.772Z,13.27
2022-10-11T03:01:53.986Z,13.24
2022-10-11T03:02:54.835Z,13.24
2022-10-11T03:03:56.067Z,13.21
2022-10-11T03:04:56.239Z,13.3
2022-10-11T03:05:56.445Z,13.36
2022-10-11T03:06:56.726Z,13.27
2022-10-11T03:07:57.647Z,13.26
2022-10-11T03:08:57.948Z,13.27
2022-10-11T03:09:58.860Z,13.24
2022-10-11T03:10:59.043Z,13.12
2022-10-11T03:11:59.335Z,13.06
2022-10-11T03:12:59.235Z,13.02
2022-10-11T03:14:00.117Z,13.02
2022-10-11T03:15:00.300Z,13.02
2022-10-11T03:16:09.730Z,12.99
2022-10-11T03:17:35.941Z,13.01
2022-10-11T03:18:01.086Z,13.01
2022-10-11T03:19:02.097Z,12.99
2022-10-11T03:20:02.568Z,13.05
2022-10-11T03:21:03.179Z,13.01
2022-10-11T03:22:04.076Z,13.05
2022-10-11T03:23:05.058Z,13.03
2022-10-11T03:24:06.265Z,13.01
2022-10-11T03:25:09.932Z,13.09
2022-10-11T03:26:08.860Z,12.94
2022-10-11T03:27:07.611Z,12.91
2022-10-11T03:28:07.938Z,12.94
2022-10-11T03:29:08.913Z,12.95
2022-10-11T03:30:09.533Z,12.95
2022-10-11T03:31:09.893Z,12.91
2022-10-11T03:32:10.615Z,12.91
2022-10-11T03:33:11.505Z,12.93
2022-10-11T03:34:11.936Z,12.78
2022-10-11T03:35:12.412Z,12.78
2022-10-11T03:36:13.043Z,12.88
2022-10-11T03:37:13.661Z,12.78
2022-10-11T03:38:18.585Z,12.75
2022-10-11T03:39:15.571Z,12.81
2022-10-11T03:40:16.469Z,12.7
2022-10-11T03:41:17.091Z,12.69
2022-10-11T03:42:18.319Z,12.68
2022-10-11T03:43:19.275Z,12.62
2022-10-11T03:44:20.216Z,12.63
2022-10-11T03:45:20.830Z,12.65
2022-10-11T03:46:21.969Z,12.62
2022-10-11T03:47:21.586Z,12.65
2022-10-11T03:48:22.807Z,12.57
2022-10-11T03:49:23.146Z,12.68
2022-10-11T03:50:23.027Z,12.54
2022-10-11T03:51:23.065Z,12.53
2022-10-11T03:52:24.253Z,12.55
2022-10-11T03:53:24.171Z,12.54
2022-10-11T03:54:25.082Z,12.53
2022-10-11T03:55:25.724Z,12.48
2022-10-11T03:56:26.065Z,12.39
2022-10-11T03:57:26.992Z,12.4
2022-10-11T03:58:26.921Z,12.45
2022-10-11T03:59:27.330Z,12.48
2022-10-11T04:00:28.275Z,12.57
2022-10-11T04:01:28.478Z,12.54
2022-10-11T04:02:29.073Z,12.51
2022-10-11T04:03:29.815Z,12.53
2022-10-11T04:04:31.065Z,12.61
2022-10-11T04:05:31.246Z,12.57
2022-10-11T04:06:31.839Z,12.57
2022-10-11T04:07:31.755Z,12.65
2022-10-11T04:08:32.371Z,12.61
2022-10-11T04:09:32.787Z,12.69
2022-10-11T04:10:33.698Z,12.66
2022-10-11T04:11:34.011Z,12.7
2022-10-11T04:12:35.223Z,12.68
2022-10-11T04:13:35.454Z,12.61
2022-10-11T04:14:36.367Z,12.69
2022-10-11T04:15:36.572Z,12.63
2022-10-11T04:16:37.206Z,12.69
2022-10-11T04:17:37.817Z,12.63
2022-10-11T04:18:38.731Z,12.66
2022-10-11T04:19:39.039Z,12.66
2022-10-11T04:20:39.542Z,12.62
2022-10-11T04:21:39.455Z,12.75
2022-10-11T04:22:40.644Z,12.65
2022-10-11T04:23:41.237Z,12.63
2022-10-11T04:24:41.862Z,12.61
2022-10-11T04:25:42.756Z,12.66
2022-10-11T04:26:43.663Z,12.65
2022-10-11T04:27:44.167Z,12.69
2022-10-11T04:28:44.658Z,12.66
2022-10-11T04:29:44.616Z,12.66
2022-10-11T04:30:45.250Z,12.68
2022-10-11T04:31:45.493Z,12.62
2022-10-11T04:32:46.235Z,12.69
2022-10-11T04:33:47.167Z,12.65
2022-10-11T04:34:48.124Z,12.65
2022-10-11T04:35:48.004Z,12.65
2022-10-11T04:36:52.023Z,12.65
2022-10-11T04:37:48.658Z,12.65
2022-10-11T04:38:49.846Z,12.55
2022-10-11T04:39:50.553Z,12.63
2022-10-11T04:40:50.913Z,12.69
2022-10-11T04:41:51.091Z,12.66
2022-10-11T04:42:52.297Z,12.68
2022-10-11T04:43:52.220Z,12.69
2022-10-11T04:44:52.836Z,12.54
2022-10-11T04:45:55.864Z,12.57
2022-10-11T04:46:54.224Z,12.61
2022-10-11T04:47:55.135Z,12.57
2022-10-11T04:48:56.333Z,12.61
2022-10-11T04:49:57.085Z,12.58
2022-10-11T04:50:56.983Z,12.58
2022-10-11T04:51:58.171Z,12.55
2022-10-11T04:52:58.353Z,12.54
2022-10-11T04:53:58.264Z,12.61
2022-10-11T04:54:59.458Z,12.58
2022-10-11T04:55:59.649Z,12.65
2022-10-11T04:56:59.851Z,12.54
2022-10-11T04:58:00.777Z,12.51
2022-10-11T04:59:01.440Z,12.62
2022-10-11T05:00:01.563Z,12.7
2022-10-11T05:01:01.789Z,12.65
2022-10-11T05:02:02.532Z,12.68
2022-10-11T05:03:02.404Z,12.63
2022-10-11T05:04:02.722Z,12.63
2022-10-11T05:05:03.384Z,12.65
2022-10-11T05:06:08.841Z,12.63
2022-10-11T05:07:04.224Z,12.62
2022-10-11T05:08:04.857Z,12.75
2022-10-11T05:09:05.801Z,12.63
2022-10-11T05:10:06.508Z,12.63
2022-10-11T05:11:06.718Z,12.65
2022-10-11T05:12:07.270Z,12.84
2022-10-11T05:13:08.174Z,12.69
2022-10-11T05:14:08.184Z,12.76
2022-10-11T05:15:09.119Z,12.78
2022-10-11T05:16:17.492Z,12.8
2022-10-11T05:17:10.897Z,12.8
2022-10-11T05:18:11.221Z,12.8
2022-10-11T05:19:11.852Z,12.83
2022-10-11T05:20:12.565Z,12.83
2022-10-11T05:21:13.738Z,12.83
2022-10-11T05:22:14.084Z,12.83
2022-10-11T05:23:14.721Z,12.88
2022-10-11T05:24:15.079Z,12.81
2022-10-11T05:25:16.271Z,12.83
2022-10-11T05:26:16.463Z,12.87
2022-10-11T05:27:17.356Z,12.83
2022-10-11T05:28:18.116Z,12.81
2022-10-11T05:29:17.987Z,12.83
2022-10-11T05:30:19.002Z,12.84
2022-10-11T05:31:19.893Z,12.81
2022-10-11T05:32:20.219Z,12.87
2022-10-11T05:33:20.855Z,12.93
2022-10-11T05:34:21.752Z,12.99
2022-10-11T05:35:22.706Z,12.93
2022-10-11T05:36:23.304Z,12.9
2022-10-11T05:37:24.497Z,13.01
2022-10-11T05:38:25.409Z,13.06
2022-10-11T05:39:26.024Z,13.03
2022-10-11T05:40:27.318Z,13.01
2022-10-11T05:41:28.215Z,13.03
2022-10-11T05:42:28.853Z,12.98
2022-10-11T05:43:29.483Z,13.05
2022-10-11T05:44:29.990Z,12.99
2022-10-11T05:45:30.207Z,13.01
2022-10-11T05:46:30.819Z,13.08
2022-10-11T05:47:31.415Z,12.94
2022-10-11T05:48:32.522Z,12.94
2022-10-11T05:49:32.716Z,12.98
2022-10-11T05:50:33.513Z,13.02
2022-10-11T05:51:33.862Z,12.98
2022-10-11T05:52:34.789Z,13.01
2022-10-11T05:53:34.982Z,13.02
2022-10-11T05:54:34.899Z,13.02
2022-10-11T05:55:35.984Z,12.99
2022-10-11T05:56:36.321Z,13.02
2022-10-11T05:57:37.519Z,13.05
2022-10-11T05:58:38.168Z,12.99
2022-10-11T05:59:38.102Z,12.98
2022-10-11T06:00:39.241Z,13.03
2022-10-11T06:01:40.136Z,12.98
2022-10-11T06:02:40.537Z,13.02
2022-10-11T06:03:40.737Z,13.02
2022-10-11T06:04:41.933Z,13.01
2022-10-11T06:05:41.859Z,12.99
2022-10-11T06:06:42.325Z,13.01
2022-10-11T06:07:42.959Z,13.03
2022-10-11T06:08:43.586Z,12.93
2022-10-11T06:09:44.078Z,12.95
2022-10-11T06:10:44.365Z,13.01
2022-10-11T06:11:44.962Z,12.99
2022-10-11T06:12:45.598Z,12.98
2022-10-11T06:13:46.102Z,13.01
2022-10-11T06:14:46.327Z,12.99
2022-10-11T06:15:46.242Z,12.95
2022-10-11T06:16:46.857Z,13.02
2022-10-11T06:17:47.353Z,13.01
2022-10-11T06:18:46.981Z,13.08
2022-10-11T06:19:48.171Z,13.05
2022-10-11T06:20:48.661Z,13.01
2022-10-11T06:21:48.855Z,13.01
2022-10-11T06:22:49.768Z,13.03
2022-10-11T06:23:50.966Z,13.11
2022-10-11T06:24:51.567Z,13.08
2022-10-11T06:25:52.508Z,13.08
2022-10-11T06:26:52.458Z,13.11
2022-10-11T06:27:53.093Z,13.08
2022-10-11T06:28:53.788Z,13.06
2022-10-11T06:29:53.837Z,13.08
2022-10-11T06:30:54.517Z,13.12
2022-10-11T06:31:55.152Z,13.11
2022-10-11T06:33:02.444Z,13.13
2022-10-11T06:33:57.175Z,13.17
2022-10-11T06:34:58.173Z,13.16
2022-10-11T06:35:58.134Z,13.16
2022-10-11T06:36:59.394Z,13.11
2022-10-11T06:38:00.024Z,13.17
2022-10-11T06:39:00.953Z,13.27
2022-10-11T06:40:01.858Z,13.24
2022-10-11T06:41:02.005Z,13.37
2022-10-11T06:42:03.366Z,13.33
2022-10-11T06:43:04.564Z,13.23
2022-10-11T06:44:05.224Z,13.21
2022-10-11T06:45:05.903Z,13.3
2022-10-11T06:46:07.593Z,13.37
2022-10-11T06:47:07.625Z,13.33
2022-10-11T06:48:08.266Z,13.39
2022-10-11T06:49:09.203Z,13.4
2022-10-11T06:50:10.054Z,13.45
2022-10-11T06:51:24.574Z,13.52
2022-10-11T06:52:24.491Z,13.57
2022-10-11T06:53:24.637Z,13.57
2022-10-11T06:54:25.366Z,13.68
2022-10-11T06:55:26.869Z,13.73
2022-10-11T06:56:27.210Z,13.73
2022-10-11T06:57:27.855Z,13.7
2022-10-11T06:58:28.486Z,13.7
2022-10-11T06:59:29.414Z,13.79
2022-10-11T07:00:30.692Z,13.79
2022-10-11T07:01:31.949Z,13.85
2022-10-11T07:02:31.493Z,13.85
2022-10-11T07:03:32.391Z,13.87
2022-10-11T07:04:33.030Z,13.85
2022-10-11T07:05:34.287Z,14.01
2022-10-11T07:06:34.228Z,14.01
2022-10-11T07:07:34.428Z,14.01
2022-10-11T07:08:35.047Z,14.03
2022-10-11T07:09:36.053Z,14.03
2022-10-11T07:10:36.278Z,14.08
2022-10-11T07:11:36.312Z,14.13
2022-10-11T07:12:36.511Z,14.13
2022-10-11T07:13:37.410Z,14.2
2022-10-11T07:14:38.650Z,14.16
2022-10-11T07:15:38.618Z,14.22
2022-10-11T07:16:39.882Z,14.2
2022-10-11T07:17:40.092Z,14.25
2022-10-11T07:18:41.323Z,14.26
2022-10-11T07:19:41.792Z,14.3
2022-10-11T07:20:43.297Z,14.33
2022-10-11T07:21:43.799Z,14.25
2022-10-11T07:22:44.707Z,14.43
2022-10-11T07:23:44.904Z,14.44
2022-10-11T07:24:45.567Z,14.33
2022-10-11T07:25:46.218Z,14.34
2022-10-11T07:26:46.423Z,14.33
2022-10-11T07:27:47.327Z,14.31
2022-10-11T07:28:48.049Z,14.4
2022-10-11T07:29:48.886Z,14.36
2022-10-11T07:30:49.108Z,14.33
2022-10-11T07:31:49.727Z,14.41
2022-10-11T07:32:49.666Z,14.4
2022-10-11T07:33:51.179Z,14.34
2022-10-11T07:34:51.643Z,14.45
2022-10-11T07:35:54.403Z,14.36
2022-10-11T07:36:53.602Z,14.44
2022-10-11T07:37:53.234Z,14.41
2022-10-11T07:38:53.886Z,14.34
2022-10-11T07:39:54.528Z,14.4
2022-10-11T07:40:55.435Z,14.41
2022-10-11T07:41:56.667Z,14.44
2022-10-11T07:42:56.299Z,14.43
2022-10-11T07:43:57.215Z,14.41
2022-10-11T07:44:58.151Z,14.48
2022-10-11T07:45:58.703Z,14.49
2022-10-11T07:46:59.230Z,14.41
2022-10-11T07:48:00.040Z,14.45
2022-10-11T07:49:00.534Z,14.52
2022-10-11T07:50:01.161Z,14.45
2022-10-11T07:51:01.389Z,14.45
2022-10-11T07:52:02.489Z,14.48
2022-10-11T07:53:03.676Z,14.45
2022-10-11T07:54:07.793Z,14.55
2022-10-11T07:55:03.753Z,14.49
2022-10-11T07:56:05.302Z,14.51
2022-10-11T07:57:05.624Z,14.56
2022-10-11T07:58:06.288Z,14.52
2022-10-11T07:59:06.242Z,14.58
2022-10-11T08:00:07.166Z,14.56
2022-10-11T08:01:07.647Z,14.52
2022-10-11T08:02:07.224Z,14.52
2022-10-11T08:03:07.855Z,14.52
2022-10-11T08:04:09.199Z,14.51
2022-10-11T08:05:09.725Z,14.56
2022-10-11T08:06:10.888Z,14.61
2022-10-11T08:07:10.707Z,14.61
2022-10-11T08:08:11.178Z,14.62
2022-10-11T08:09:11.817Z,14.58
2022-10-11T08:10:12.176Z,14.63
2022-10-11T08:11:12.449Z,14.61
2022-10-11T08:12:13.507Z,14.66
2022-10-11T08:13:14.179Z,14.59
2022-10-11T08:14:15.103Z,14.63
2022-10-11T08:15:16.311Z,14.68
2022-10-11T08:16:16.831Z,14.63
2022-10-11T08:17:16.753Z,14.62
2022-10-11T08:18:17.078Z,14.68
2022-10-11T08:19:18.283Z,14.68
2022-10-11T08:20:18.510Z,14.56
2022-10-11T08:21:19.720Z,14.67
2022-10-11T08:22:20.523Z,14.7
2022-10-11T08:23:21.708Z,14.68
2022-10-11T08:24:21.618Z,14.7
2022-10-11T08:25:22.543Z,14.68
2022-10-11T08:26:23.883Z,14.7
2022-10-11T08:27:23.838Z,14.77
2022-10-11T08:28:24.953Z,14.78
2022-10-11T08:29:26.069Z,14.86
2022-10-11T08:30:27.003Z,14.78
2022-10-11T08:31:27.762Z,14.89
2022-10-11T08:32:28.127Z,14.92
2022-10-11T08:33:28.767Z,14.81
2022-10-11T08:34:29.264Z,14.77
2022-10-11T08:35:29.943Z,14.87
2022-10-11T08:36:31.122Z,14.89
2022-10-11T08:37:30.849Z,14.86
2022-10-11T08:38:31.075Z,14.93
2022-10-11T08:39:31.734Z,14.94
2022-10-11T08:40:36.427Z,15
2022-10-11T08:41:33.059Z,14.86
2022-10-11T08:42:34.635Z,14.97
2022-10-11T08:43:34.540Z,14.96
2022-10-11T08:45:11.999Z,14.87
2022-10-11T08:45:36.219Z,14.79
2022-10-11T08:46:37.443Z,14.78
2022-10-11T08:47:38.078Z,14.68
2022-10-11T08:48:38.572Z,14.67
2022-10-11T08:49:38.497Z,14.59
2022-10-11T08:50:39.706Z,14.63
2022-10-11T08:51:40.210Z,14.7
2022-10-11T08:52:40.269Z,14.55
2022-10-11T08:53:41.491Z,14.7
2022-10-11T08:54:42.415Z,14.71
2022-10-11T08:55:42.069Z,14.68
2022-10-11T08:56:43.471Z,14.66
2022-10-11T08:57:43.961Z,14.81
2022-10-11T08:58:44.624Z,14.68
2022-10-11T08:59:45.560Z,14.7
2022-10-11T09:00:46.477Z,14.68
2022-10-11T09:01:46.917Z,14.58
2022-10-11T09:03:15.875Z,14.61
2022-10-11T09:04:15.365Z,14.73
2022-10-11T09:05:16.000Z,14.67
2022-10-11T09:06:15.953Z,14.71
2022-10-11T09:07:16.145Z,14.79
2022-10-11T09:08:16.673Z,14.82
2022-10-11T09:09:17.153Z,14.77
2022-10-11T09:10:17.780Z,14.71
2022-10-11T09:11:19.021Z,14.73
2022-10-11T09:12:18.957Z,14.67
2022-10-11T09:13:20.186Z,14.66
2022-10-11T09:14:20.510Z,14.62
2022-10-11T09:15:20.502Z,14.68
2022-10-11T09:16:21.195Z,14.79
2022-10-11T09:17:22.142Z,14.82
2022-10-11T09:18:22.058Z,14.81
2022-10-11T09:19:23.255Z,14.86
2022-10-11T09:20:23.875Z,14.79
2022-10-11T09:21:24.146Z,14.94
2022-10-11T09:22:30.964Z,14.99
2022-10-11T09:23:25.004Z,14.92
2022-10-11T09:24:25.485Z,15.05
2022-10-11T09:25:25.704Z,15.02
2022-10-11T09:26:26.218Z,15.08
2022-10-11T09:28:03.449Z,15.23
2022-10-11T09:28:27.190Z,15.15
2022-10-11T09:29:27.087Z,15.18
2022-10-11T09:30:28.584Z,15.29
2022-10-11T09:31:28.561Z,15.3
2022-10-11T09:32:29.133Z,15.27
2022-10-11T09:33:29.895Z,15.43
2022-10-11T09:34:31.091Z,15.39
2022-10-11T09:35:31.443Z,15.43
2022-10-11T09:36:32.454Z,15.43
2022-10-11T09:37:33.081Z,15.59
2022-10-11T09:38:34.056Z,15.51
2022-10-11T09:39:34.969Z,15.6
2022-10-11T09:40:35.469Z,15.51
2022-10-11T09:41:35.389Z,15.65
2022-10-11T09:42:36.290Z,15.69
2022-10-11T09:43:36.755Z,15.69
2022-10-11T09:44:37.662Z,15.73
2022-10-11T09:45:37.604Z,15.78
2022-10-11T09:46:38.448Z,15.78
2022-10-11T09:47:38.821Z,15.81
2022-10-11T09:48:39.736Z,15.87
2022-10-11T09:49:40.655Z,15.94
2022-10-11T09:50:41.315Z,16
2022-10-11T09:51:42.234Z,15.99
2022-10-11T09:52:42.168Z,16.02
2022-10-11T09:53:42.682Z,16.05
2022-10-11T09:54:42.888Z,16.1
2022-10-11T09:55:42.790Z,16.12
2022-10-11T09:56:44.016Z,16.21
2022-10-11T09:57:44.223Z,16.22
2022-10-11T09:58:44.140Z,16.26
2022-10-11T09:59:45.061Z,16.26
2022-10-11T10:00:46.002Z,16.24
2022-10-11T10:01:47.286Z,16.41
2022-10-11T10:02:47.928Z,16.31
2022-10-11T10:03:47.947Z,16.31
2022-10-11T10:04:48.353Z,16.36
2022-10-11T10:05:49.569Z,16.4
2022-10-11T10:06:50.212Z,16.31
2022-10-11T10:07:51.136Z,16.34
2022-10-11T10:08:51.470Z,16.29
2022-10-11T10:09:51.678Z,16.36
2022-10-11T10:10:59.541Z,16.36
2022-10-11T10:11:53.682Z,16.29
2022-10-11T10:12:53.607Z,16.28
2022-10-11T10:13:54.218Z,16.13
2022-10-11T10:14:54.444Z,16.13
2022-10-11T10:15:55.046Z,16.1
2022-10-11T10:16:56.398Z,15.96
2022-10-11T10:17:56.922Z,16
2022-10-11T10:18:56.542Z,15.87
2022-10-11T10:19:58.170Z,15.83
2022-10-11T10:20:59.069Z,15.81
2022-10-11T10:21:58.985Z,15.87
2022-10-11T10:22:59.182Z,15.84
2022-10-11T10:24:00.226Z,15.83
2022-10-11T10:25:00.416Z,15.87
2022-10-11T10:26:00.623Z,15.91
2022-10-11T10:27:00.742Z,15.9
2022-10-11T10:28:01.797Z,15.96
2022-10-11T10:29:02.733Z,16
2022-10-11T10:30:03.655Z,15.98
2022-10-11T10:31:04.077Z,16.03
2022-10-11T10:32:20.155Z,16.17
2022-10-11T10:33:05.561Z,16.18
2022-10-11T10:34:05.603Z,16.24
2022-10-11T10:35:06.528Z,16.4
2022-10-11T10:36:09.674Z,16.34
2022-10-11T10:37:08.074Z,16.37
2022-10-11T10:38:08.005Z,16.44
2022-10-11T10:39:08.715Z,16.46
2022-10-11T10:40:08.913Z,16.51
2022-10-11T10:41:08.833Z,16.43
2022-10-11T10:42:09.802Z,16.47
2022-10-11T10:43:10.719Z,16.51
2022-10-11T10:44:11.725Z,16.51
2022-10-11T10:45:22.118Z,16.49
2022-10-11T10:46:12.204Z,16.57
2022-10-11T10:47:13.172Z,16.66
2022-10-11T10:48:13.074Z,16.73
2022-10-11T10:49:55.270Z,16.89
2022-10-11T10:50:14.628Z,16.87
2022-10-11T10:51:16.294Z,16.97
2022-10-11T10:52:15.811Z,16.91
2022-10-11T10:53:15.716Z,16.79
2022-10-11T10:54:17.061Z,16.91
2022-10-11T10:55:17.261Z,16.86
2022-10-11T10:56:17.181Z,16.97
2022-10-11T10:57:17.379Z,16.95
2022-10-11T10:58:23.765Z,17.01
2022-10-11T10:59:17.958Z,17.04
2022-10-11T11:00:18.878Z,17.3
2022-10-11T11:01:20.083Z,17.39
2022-10-11T11:02:45.527Z,17.52
2022-10-11T11:03:20.693Z,17.71
2022-10-11T11:04:22.018Z,17.69
2022-10-11T11:05:23.358Z,17.71
2022-10-11T11:06:23.273Z,17.72
2022-10-11T11:07:24.188Z,17.71
2022-10-11T11:08:24.816Z,17.78
2022-10-11T11:09:25.774Z,17.73
2022-10-11T11:10:26.257Z,17.73
2022-10-11T11:11:26.479Z,17.76
2022-10-11T11:12:26.395Z,17.76
2022-10-11T11:13:27.040Z,17.87
2022-10-11T11:14:28.039Z,17.91
2022-10-11T11:15:38.568Z,17.93
2022-10-11T11:16:29.217Z,17.86
2022-10-11T11:17:30.159Z,17.86
2022-10-11T11:18:30.807Z,17.78
2022-10-11T11:19:32.066Z,17.93
2022-10-11T11:20:32.291Z,18.02
2022-10-11T11:21:34.301Z,18.03
2022-10-11T11:22:38.254Z,18
2022-10-11T11:23:34.473Z,18.12
2022-10-11T11:24:35.063Z,18.13
2022-10-11T11:25:35.282Z,18.39
2022-10-11T11:26:40.791Z,18.52
2022-10-11T11:27:36.247Z,18.71
2022-10-11T11:28:37.386Z,18.78
2022-10-11T11:29:37.399Z,18.92
2022-10-11T11:30:37.789Z,19.09
2022-10-11T11:31:38.029Z,19.24
2022-10-11T11:32:45.659Z,19.39
2022-10-11T11:33:40.057Z,19.55
2022-10-11T11:34:40.782Z,19.55
2022-10-11T11:35:41.282Z,19.72
2022-10-11T11:36:41.906Z,19.71
2022-10-11T11:37:43.220Z,19.66
2022-10-11T11:38:43.251Z,19.49
2022-10-11T11:39:43.908Z,19.57
2022-10-11T11:40:44.389Z,19.49
2022-10-11T11:41:44.320Z,19.55
2022-10-11T11:42:45.525Z,19.57
2022-10-11T11:43:45.753Z,19.72
2022-10-11T11:44:46.549Z,19.72
2022-10-11T11:45:47.450Z,19.79
2022-10-11T11:46:47.661Z,19.62
2022-10-11T11:47:47.623Z,19.53
2022-10-11T11:48:48.835Z,19.47
2022-10-11T11:49:50.121Z,19.47
2022-10-11T11:50:50.049Z,19.48
2022-10-11T11:51:50.973Z,19.55
2022-10-11T11:52:51.912Z,19.55
2022-10-11T11:53:52.838Z,19.59
2022-10-11T11:54:53.542Z,19.72
2022-10-11T11:55:53.891Z,19.72
2022-10-11T11:56:54.813Z,19.92
2022-10-11T11:57:55.775Z,20.17
2022-10-11T11:58:56.657Z,20.24
2022-10-11T11:59:57.308Z,20.36
2022-10-11T12:00:58.252Z,20.55
2022-10-11T12:01:59.130Z,20.68
2022-10-11T12:02:59.807Z,20.6
2022-10-11T12:04:00.446Z,20.6
2022-10-11T12:05:00.923Z,20.64
2022-10-11T12:06:00.566Z,20.66
2022-10-11T12:07:20.877Z,20.52
2022-10-11T12:08:02.497Z,20.39
2022-10-11T12:09:03.426Z,20.42
2022-10-11T12:10:03.673Z,20.5
2022-10-11T12:11:05.013Z,20.53
2022-10-11T12:12:04.754Z,20.74
2022-10-11T12:13:04.660Z,20.88
2022-10-11T12:14:04.864Z,21.01
2022-10-11T12:15:06.187Z,21.04
2022-10-11T12:16:06.818Z,21.13
2022-10-11T12:17:07.448Z,21.15
2022-10-11T12:18:08.729Z,21.15
2022-10-11T12:19:09.071Z,21.33
2022-10-11T12:20:09.660Z,21.38
2022-10-11T12:21:10.087Z,21.33
2022-10-11T12:22:10.018Z,21.3
2022-10-11T12:23:10.958Z,21.2
2022-10-11T12:24:11.701Z,21.14
2022-10-11T12:25:18.792Z,21.04
2022-10-11T12:26:13.351Z,20.89
2022-10-11T12:27:13.566Z,20.88
2022-10-11T12:28:13.794Z,20.83
2022-10-11T12:29:14.124Z,20.9
2022-10-11T12:30:14.145Z,20.86
2022-10-11T12:31:15.005Z,20.88
2022-10-11T12:32:14.979Z,20.88
2022-10-11T12:33:15.984Z,20.93
2022-10-11T12:34:16.008Z,21.03
2022-10-11T12:35:16.750Z,21.03
2022-10-11T12:36:17.125Z,21.07
2022-10-11T12:37:17.083Z,21.05
2022-10-11T12:38:17.387Z,21.15
2022-10-11T12:39:18.625Z,21.07
2022-10-11T12:40:18.548Z,21.2
2022-10-11T12:41:19.484Z,21.17
2022-10-11T12:42:20.842Z,21.11
2022-10-11T12:43:21.373Z,21.13
2022-10-11T12:44:21.714Z,21.2
2022-10-11T12:45:22.800Z,21.15
2022-10-11T12:46:23.034Z,21.19
2022-10-11T12:47:23.546Z,21.25
2022-10-11T12:48:33.194Z,21.35
2022-10-11T12:49:24.719Z,21.3
2022-10-11T12:50:25.403Z,21.33
2022-10-11T12:51:26.091Z,21.32
2022-10-11T12:52:26.406Z,21.19
2022-10-11T12:53:27.347Z,21.17
2022-10-11T12:54:37.612Z,21.2
2022-10-11T12:55:29.030Z,21.23
2022-10-11T12:56:29.282Z,21.37
2022-10-11T12:57:30.204Z,21.33
2022-10-11T12:58:31.302Z,21.51
2022-10-11T12:59:32.517Z,21.43
2022-10-11T13:00:32.443Z,21.38
2022-10-11T13:01:33.398Z,21.33
2022-10-11T13:02:34.545Z,21.25
2022-10-11T13:03:38.345Z,21.2